Colmar, Illinois
Current Conditions -  °F | °C
As of 8:35 AM on Sunday 21 Dec 2014 (Local Time) from KMQB Reporting Station
Haze Haze  
Wind Chill: 30°   Ceiling: 2000
Heat Index: 37°   Visibility: 5mi
Dew Point: 35°   Wind: 9mph
Humidity: 94%   Direction: 160°SSE
Pressure: 30.16"   Gusts: NA
Location:  40.2814°N, 90.8526°W
Report Text: KMQB 211435Z AUTO 16008KT 5SM BR OVC020 03/02 A3016 RMK AO2 T00250016
Loading
Personal Weather Stations






























Interactive Weather Map New forecast layout! Learn more

10-Day Weather Forecast

Advertisements
Track Severe Weather on mobile